Time;durP1;ratioP1;P1;durP2;ratioP2;P2;SDS_P1;SDS_P2;PMS_P1;PMS_P2;Temp;Humidity;BMP_temperature;BMP_pressure;BME280_temperature;BME280_humidity;BME280_pressure;Samples;Min_cycle;Max_cycle;Signal;HPM_P1;HPM_P2
2023/08/26 00:01:00;;;;;;;13.33;7.07;;;20.50;99.90;;;;;;5096327;28;20199;-65
2023/08/26 00:03:47;;;;;;;8.27;6.30;;;20.50;99.90;;;;;;5063276;28;1177725;-65
2023/08/26 00:06:36;;;;;;;10.87;5.23;;;20.50;99.90;;;;;;5105025;28;20218;-65
2023/08/26 00:09:23;;;;;;;10.43;5.33;;;20.40;99.90;;;;;;5106682;28;20252;-65
2023/08/26 00:12:10;;;;;;;10.80;5.00;;;20.30;99.90;;;;;;5106654;28;20196;-65
2023/08/26 00:14:57;;;;;;;13.93;5.07;;;20.30;99.90;;;;;;5098507;28;20201;-64
2023/08/26 00:17:44;;;;;;;7.23;4.53;;;20.20;99.90;;;;;;5100041;28;20260;-65
2023/08/26 00:20:31;;;;;;;12.00;5.73;;;20.10;99.90;;;;;;5106806;28;20344;-65
2023/08/26 00:23:20;;;;;;;14.50;5.77;;;20.10;99.90;;;;;;5103815;28;20206;-65
2023/08/26 00:26:07;;;;;;;12.53;7.07;;;20.10;99.90;;;;;;5106087;28;20218;-65
2023/08/26 00:28:55;;;;;;;15.40;6.47;;;20.10;99.90;;;;;;5106737;28;20289;-65
2023/08/26 00:31:42;;;;;;;9.63;6.20;;;20.10;99.90;;;;;;5104471;28;20282;-65
2023/08/26 00:34:29;;;;;;;11.70;6.17;;;19.90;99.90;;;;;;5098993;28;20680;-66
2023/08/26 00:37:17;;;;;;;9.87;6.13;;;19.90;99.90;;;;;;5103149;28;20255;-65
2023/08/26 00:40:06;;;;;;;13.63;6.17;;;19.90;99.90;;;;;;5104061;28;20673;-65
2023/08/26 00:42:54;;;;;;;12.30;7.33;;;19.90;99.90;;;;;;5106748;28;20199;-65
2023/08/26 00:45:42;;;;;;;15.30;7.03;;;20.00;99.90;;;;;;5106668;28;20566;-65
2023/08/26 00:48:29;;;;;;;14.37;7.70;;;20.00;99.90;;;;;;5104022;28;20207;-65
2023/08/26 00:51:17;;;;;;;15.20;7.13;;;19.90;99.90;;;;;;5104624;28;20701;-65
2023/08/26 00:54:04;;;;;;;8.87;6.33;;;20.00;99.90;;;;;;5106523;28;20292;-65
2023/08/26 00:56:53;;;;;;;15.60;6.07;;;19.90;99.90;;;;;;5109681;28;20638;-65
2023/08/26 00:59:40;;;;;;;12.80;7.00;;;19.90;99.90;;;;;;5110845;28;21338;-65
2023/08/26 01:02:28;;;;;;;10.57;6.90;;;19.90;99.90;;;;;;5104656;28;20309;-65
2023/08/26 01:05:15;;;;;;;14.33;6.90;;;19.90;99.90;;;;;;5108228;28;20985;-65
2023/08/26 01:08:03;;;;;;;16.50;7.03;;;19.90;99.90;;;;;;5107278;28;20287;-65
2023/08/26 01:10:57;;;;;;;12.43;7.63;;;19.90;99.90;;;;;;5109569;28;20206;-65
2023/08/26 01:13:51;;;;;;;12.30;8.77;;;19.80;99.90;;;;;;5105335;28;20207;-66
2023/08/26 01:16:39;;;;;;;13.23;6.80;;;19.80;99.90;;;;;;5108423;28;20359;-65
2023/08/26 01:19:31;;;;;;;10.23;6.30;;;19.60;99.90;;;;;;5109807;28;20203;-65
2023/08/26 01:22:18;;;;;;;9.50;6.43;;;19.60;99.90;;;;;;5102088;28;20763;-66
2023/08/26 01:25:08;;;;;;;11.03;6.97;;;19.50;99.90;;;;;;5108489;28;20199;-65
2023/08/26 01:27:55;;;;;;;12.27;7.63;;;19.60;99.90;;;;;;5106142;28;20576;-66
2023/08/26 01:30:42;;;;;;;8.83;7.13;;;19.60;99.90;;;;;;5108527;28;20210;-65
2023/08/26 01:33:32;;;;;;;14.80;7.23;;;19.50;99.90;;;;;;5102399;28;20282;-66
2023/08/26 01:36:21;;;;;;;12.57;7.73;;;19.50;99.90;;;;;;5106964;28;20252;-67
2023/08/26 01:39:09;;;;;;;11.07;7.87;;;19.50;99.90;;;;;;5109825;28;20211;-65
2023/08/26 01:41:58;;;;;;;17.70;8.00;;;19.50;99.90;;;;;;5108157;28;20203;-66
2023/08/26 01:44:45;;;;;;;13.67;8.33;;;19.40;99.90;;;;;;5108549;28;20218;-66
2023/08/26 01:47:32;;;;;;;17.07;8.27;;;19.40;99.90;;;;;;5107518;28;20562;-65
2023/08/26 01:50:20;;;;;;;16.10;9.27;;;19.30;99.90;;;;;;5107454;28;20673;-67
2023/08/26 01:53:08;;;;;;;18.53;9.83;;;19.40;99.90;;;;;;5109400;28;20222;-66
2023/08/26 01:55:55;;;;;;;14.73;8.30;;;19.30;99.90;;;;;;5109031;28;20203;-65
2023/08/26 01:58:44;;;;;;;19.63;10.60;;;19.30;99.90;;;;;;5107415;28;20195;-66
2023/08/26 02:01:33;;;;;;;16.80;9.87;;;19.20;99.90;;;;;;5103514;28;20193;-66
2023/08/26 02:04:21;;;;;;;21.23;11.00;;;19.20;99.90;;;;;;5107591;28;20206;-67
2023/08/26 02:07:08;;;;;;;17.67;10.40;;;19.20;99.90;;;;;;5107279;28;20215;-66
2023/08/26 02:09:55;;;;;;;18.93;10.13;;;19.10;99.90;;;;;;5106203;28;20198;-66
2023/08/26 02:12:42;;;;;;;16.77;10.37;;;19.10;99.90;;;;;;5109957;28;20199;-66
2023/08/26 02:15:33;;;;;;;17.30;9.93;;;19.10;99.90;;;;;;5103737;28;20269;-66
2023/08/26 02:18:21;;;;;;;18.83;9.97;;;19.00;99.90;;;;;;5102940;28;20557;-66
2023/08/26 02:21:09;;;;;;;13.80;9.30;;;19.00;99.90;;;;;;5106029;28;20208;-65
2023/08/26 02:23:56;;;;;;;15.00;9.20;;;19.00;99.90;;;;;;5105500;28;20187;-66
2023/08/26 02:26:43;;;;;;;16.77;8.87;;;19.00;99.90;;;;;;5107275;28;20195;-67
2023/08/26 02:29:31;;;;;;;17.27;10.33;;;19.00;99.90;;;;;;5105005;28;20198;-66
2023/08/26 02:32:20;;;;;;;16.50;10.30;;;18.90;99.90;;;;;;5103121;28;20277;-67
2023/08/26 02:35:07;;;;;;;18.87;10.23;;;18.90;99.90;;;;;;5106333;28;20199;-66
2023/08/26 02:37:54;;;;;;;15.83;8.43;;;18.80;99.90;;;;;;5107749;28;20709;-66
2023/08/26 02:40:42;;;;;;;13.20;8.40;;;18.80;99.90;;;;;;5107755;28;20202;-65
2023/08/26 02:43:29;;;;;;;13.17;8.50;;;18.70;99.90;;;;;;5106176;28;20210;-67
2023/08/26 02:46:16;;;;;;;13.93;8.50;;;18.70;99.90;;;;;;5106166;28;20678;-67
2023/08/26 02:49:05;;;;;;;14.77;8.53;;;18.70;99.90;;;;;;5105256;28;20218;-67
2023/08/26 02:51:52;;;;;;;14.53;9.30;;;18.70;99.90;;;;;;5097748;28;20221;-67
2023/08/26 02:54:39;;;;;;;12.13;8.17;;;18.70;99.90;;;;;;5099494;28;20709;-68
2023/08/26 02:57:26;;;;;;;15.07;8.83;;;18.70;99.90;;;;;;5100699;28;20207;-67
2023/08/26 03:00:15;;;;;;;15.30;8.60;;;18.60;99.90;;;;;;5109108;28;20566;-66
2023/08/26 03:03:02;;;;;;;14.40;8.47;;;18.60;99.90;;;;;;5105414;28;20230;-66
2023/08/26 03:05:51;;;;;;;13.40;7.90;;;18.50;99.90;;;;;;5107288;28;20235;-67
2023/08/26 03:08:38;;;;;;;21.20;8.47;;;18.40;99.90;;;;;;5102463;28;20714;-67
2023/08/26 03:11:25;;;;;;;16.90;7.60;;;18.40;99.90;;;;;;5095477;28;20203;-67
2023/08/26 03:14:12;;;;;;;13.97;8.20;;;18.40;99.90;;;;;;5108314;28;20214;-67
2023/08/26 03:16:59;;;;;;;13.37;8.07;;;18.40;99.90;;;;;;5105422;28;20216;-67
2023/08/26 03:19:47;;;;;;;13.90;8.10;;;18.40;99.90;;;;;;5106178;28;20738;-67
2023/08/26 03:22:35;;;;;;;10.40;6.90;;;18.40;99.90;;;;;;5105073;28;20268;-67
2023/08/26 03:25:23;;;;;;;10.83;7.40;;;18.40;99.90;;;;;;5103702;28;20662;-68
2023/08/26 03:28:10;;;;;;;9.77;6.83;;;18.30;99.90;;;;;;5104669;28;20219;-66
2023/08/26 03:31:04;;;;;;;10.60;7.57;;;18.30;99.90;;;;;;5108362;28;20563;-66
2023/08/26 03:33:51;;;;;;;15.43;7.77;;;18.30;99.90;;;;;;5106826;28;20202;-66
2023/08/26 03:36:39;;;;;;;12.20;7.40;;;18.20;99.90;;;;;;5108170;28;20342;-67
2023/08/26 03:39:27;;;;;;;11.37;7.00;;;18.20;99.90;;;;;;5103286;28;20202;-66
2023/08/26 03:42:15;;;;;;;10.77;7.23;;;18.10;99.90;;;;;;5106122;28;20206;-69
2023/08/26 03:45:04;;;;;;;14.07;7.80;;;18.20;99.90;;;;;;5102959;28;20192;-66
2023/08/26 03:47:51;;;;;;;11.07;7.07;;;18.20;99.90;;;;;;5100156;28;20313;-67
2023/08/26 03:50:38;;;;;;;15.23;7.73;;;18.20;99.90;;;;;;5105602;28;20317;-67
2023/08/26 03:53:27;;;;;;;10.27;7.20;;;18.20;99.90;;;;;;5102975;28;20198;-67
2023/08/26 03:56:15;;;;;;;16.57;8.17;;;18.10;99.90;;;;;;5105085;28;20195;-66
2023/08/26 03:59:02;;;;;;;10.93;6.90;;;18.10;99.90;;;;;;5101951;28;20200;-67
2023/08/26 04:01:50;;;;;;;13.37;6.97;;;18.00;99.90;;;;;;5105451;28;20207;-66
2023/08/26 04:04:37;;;;;;;16.10;7.23;;;18.00;99.90;;;;;;5104691;28;20290;-66
2023/08/26 04:07:24;;;;;;;12.13;7.60;;;18.10;99.90;;;;;;5104584;28;20229;-67
2023/08/26 04:10:11;;;;;;;11.13;7.53;;;18.10;99.90;;;;;;5099846;28;20580;-66
2023/08/26 04:13:01;;;;;;;12.57;7.30;;;18.10;99.90;;;;;;5101523;28;20328;-67
2023/08/26 04:15:48;;;;;;;15.93;7.77;;;18.20;99.90;;;;;;5095636;28;20199;-66
2023/08/26 04:18:35;;;;;;;13.33;7.87;;;18.20;99.90;;;;;;5106337;28;20689;-67
2023/08/26 04:21:23;;;;;;;11.20;7.77;;;18.30;99.90;;;;;;5105674;28;20219;-67
2023/08/26 04:24:10;;;;;;;20.73;8.17;;;18.30;99.90;;;;;;5097905;28;20195;-67
2023/08/26 04:26:57;;;;;;;14.30;8.20;;;18.40;99.90;;;;;;5111786;28;20214;-67
2023/08/26 04:29:45;;;;;;;17.40;8.63;;;18.40;99.90;;;;;;5108400;28;20198;-67
2023/08/26 04:32:33;;;;;;;16.90;9.27;;;18.50;99.90;;;;;;5106819;28;20218;-68
2023/08/26 04:35:20;;;;;;;17.00;8.70;;;18.60;99.90;;;;;;5102219;28;20609;-68
2023/08/26 04:38:07;;;;;;;17.27;8.73;;;18.60;99.90;;;;;;5105958;28;20205;-66
2023/08/26 04:40:55;;;;;;;11.73;8.40;;;18.70;99.90;;;;;;5110196;28;20206;-67
2023/08/26 04:43:42;;;;;;;12.47;8.97;;;18.80;99.90;;;;;;5108330;28;20199;-67
2023/08/26 04:46:31;;;;;;;13.57;8.43;;;18.80;99.90;;;;;;5110141;28;20531;-67
2023/08/26 04:49:18;;;;;;;15.00;9.03;;;18.90;99.90;;;;;;5103599;28;20255;-67
2023/08/26 04:52:06;;;;;;;12.80;8.40;;;18.90;99.90;;;;;;5107766;28;20822;-67
2023/08/26 04:54:53;;;;;;;23.07;9.37;;;19.00;99.90;;;;;;5102823;28;20206;-66
2023/08/26 04:57:41;;;;;;;13.17;8.57;;;19.00;99.90;;;;;;5109203;28;20211;-67
2023/08/26 05:00:28;;;;;;;17.63;9.23;;;19.20;99.90;;;;;;5108628;28;20286;-67
2023/08/26 05:03:17;;;;;;;16.20;9.43;;;19.30;99.90;;;;;;5105460;28;20250;-67
2023/08/26 05:06:04;;;;;;;17.90;10.10;;;19.40;99.90;;;;;;5102738;28;20199;-67
2023/08/26 05:08:51;;;;;;;16.17;10.30;;;19.50;99.90;;;;;;5106726;28;20219;-67
2023/08/26 05:11:39;;;;;;;18.40;9.73;;;19.60;99.90;;;;;;5110638;28;20203;-67
2023/08/26 05:14:27;;;;;;;16.00;9.93;;;19.70;99.90;;;;;;5108020;28;20203;-67
2023/08/26 05:17:14;;;;;;;17.17;11.07;;;19.80;99.90;;;;;;5110086;28;20202;-67
2023/08/26 05:20:02;;;;;;;16.30;10.03;;;20.00;99.90;;;;;;5105147;28;20239;-67
2023/08/26 05:22:50;;;;;;;16.57;10.23;;;20.10;99.90;;;;;;5105438;28;20203;-67
2023/08/26 05:25:37;;;;;;;16.63;10.93;;;20.20;99.90;;;;;;5108035;28;20198;-67
2023/08/26 05:28:24;;;;;;;21.67;11.80;;;20.40;99.90;;;;;;5108132;28;20218;-67
2023/08/26 05:31:11;;;;;;;16.70;10.83;;;20.60;99.90;;;;;;5106935;28;20278;-68
2023/08/26 05:33:58;;;;;;;18.97;10.17;;;20.70;99.90;;;;;;5109291;28;20202;-67
2023/08/26 05:36:47;;;;;;;16.57;10.07;;;20.90;99.90;;;;;;5110091;28;20658;-67
2023/08/26 05:39:34;;;;;;;15.93;8.90;;;21.00;99.90;;;;;;5105146;28;20195;-67
2023/08/26 05:42:21;;;;;;;21.57;9.00;;;21.20;99.90;;;;;;5105063;28;20570;-68
2023/08/26 05:45:09;;;;;;;12.50;9.27;;;21.40;99.90;;;;;;5106370;28;20246;-67
2023/08/26 05:47:56;;;;;;;14.83;9.77;;;21.50;99.90;;;;;;5107496;28;20219;-67
2023/08/26 05:50:44;;;;;;;15.87;8.90;;;21.70;99.90;;;;;;5105922;28;20210;-67
2023/08/26 05:53:32;;;;;;;13.23;8.70;;;21.80;99.90;;;;;;5107297;28;20195;-67
2023/08/26 05:56:19;;;;;;;18.87;8.73;;;22.00;99.90;;;;;;5104224;28;20565;-67
2023/08/26 05:59:07;;;;;;;16.77;7.93;;;22.20;99.90;;;;;;5106886;28;20194;-67
2023/08/26 06:01:54;;;;;;;16.57;8.67;;;22.40;99.90;;;;;;5108171;28;20206;-67
2023/08/26 06:04:41;;;;;;;16.83;8.50;;;22.60;99.90;;;;;;5106323;28;20609;-67
2023/08/26 06:07:28;;;;;;;15.57;8.13;;;22.70;99.90;;;;;;5106022;28;20203;-67
2023/08/26 06:10:17;;;;;;;16.87;8.27;;;22.90;99.90;;;;;;5094580;28;20252;-67
2023/08/26 06:13:05;;;;;;;12.77;7.00;;;22.90;99.90;;;;;;5101550;28;20202;-67
2023/08/26 06:15:54;;;;;;;15.40;7.43;;;22.90;99.90;;;;;;5108923;28;20191;-67
2023/08/26 06:18:42;;;;;;;11.45;7.38;;;23.10;99.90;;;;;;5106745;28;20203;-67
2023/08/26 06:21:29;;;;;;;14.47;7.03;;;23.10;99.90;;;;;;5104625;28;20638;-67
2023/08/26 06:24:16;;;;;;;15.85;7.60;;;23.30;99.90;;;;;;5108433;28;20191;-66
2023/08/26 06:27:06;;;;;;;12.40;6.97;;;23.40;99.90;;;;;;5103921;28;20195;-66
2023/08/26 06:29:53;;;;;;;12.50;6.85;;;23.50;99.90;;;;;;5107815;28;20288;-66
2023/08/26 06:32:40;;;;;;;14.25;7.00;;;23.50;99.90;;;;;;5100570;28;20338;-67
2023/08/26 06:35:27;;;;;;;10.88;6.88;;;23.60;99.90;;;;;;5107039;28;20244;-66
2023/08/26 06:38:15;;;;;;;16.75;6.45;;;23.70;99.90;;;;;;5108445;28;20191;-66
2023/08/26 06:41:03;;;;;;;9.77;6.25;;;23.90;99.90;;;;;;5105677;28;20225;-66
2023/08/26 06:43:52;;;;;;;14.18;6.25;;;24.10;99.90;;;;;;5106331;28;20203;-66
2023/08/26 06:46:40;;;;;;;12.25;5.72;;;24.20;99.90;;;;;;5106238;28;20203;-66
2023/08/26 06:49:27;;;;;;;12.57;6.30;;;24.30;99.90;;;;;;5102931;28;20214;-66
2023/08/26 06:52:15;;;;;;;9.70;5.63;;;24.50;99.90;;;;;;5109979;28;20266;-66
2023/08/26 06:55:04;;;;;;;11.30;5.35;;;24.70;99.90;;;;;;5104056;28;20191;-66
2023/08/26 06:57:51;;;;;;;10.98;6.10;;;24.70;99.90;;;;;;5103328;28;20208;-66
2023/08/26 07:00:39;;;;;;;10.75;6.07;;;24.70;99.90;;;;;;5106151;28;20203;-66
2023/08/26 07:03:27;;;;;;;11.35;5.50;;;25.00;99.90;;;;;;5095977;28;20651;-66
2023/08/26 07:06:14;;;;;;;9.25;5.47;;;25.20;99.90;;;;;;5102619;28;20218;-66
2023/08/26 07:09:01;;;;;;;12.80;6.10;;;25.30;99.90;;;;;;5100433;28;20666;-66
2023/08/26 07:11:48;;;;;;;12.77;5.20;;;25.40;99.90;;;;;;5106797;28;20647;-66
2023/08/26 07:14:35;;;;;;;12.02;4.78;;;25.40;99.90;;;;;;5100677;28;20195;-66
2023/08/26 07:17:24;;;;;;;13.35;5.80;;;25.50;99.90;;;;;;5105995;28;20218;-66
2023/08/26 07:20:12;;;;;;;11.23;5.00;;;25.20;99.90;;;;;;5101826;28;20662;-65
2023/08/26 07:22:59;;;;;;;14.43;5.10;;;25.30;99.90;;;;;;5101365;28;20655;-65
2023/08/26 07:25:47;;;;;;;16.45;5.75;;;25.50;99.90;;;;;;5106874;28;20222;-65
2023/08/26 07:28:34;;;;;;;10.60;5.38;;;25.80;99.90;;;;;;5105131;28;20751;-65
2023/08/26 07:31:21;;;;;;;8.45;5.20;;;25.80;99.90;;;;;;5103750;28;20198;-66
2023/08/26 07:34:09;;;;;;;10.90;5.47;;;26.00;99.90;;;;;;5105879;28;20315;-65
2023/08/26 07:36:58;;;;;;;8.18;4.75;;;26.30;99.90;;;;;;5106300;28;20230;-66
2023/08/26 07:39:45;;;;;;;8.00;5.10;;;26.40;99.90;;;;;;5105997;28;20207;-65
2023/08/26 07:42:34;;;;;;;12.00;5.18;;;26.50;99.90;;;;;;5105780;28;20195;-65
2023/08/26 07:45:21;;;;;;;5.53;4.15;;;26.50;99.90;;;;;;5105917;28;20199;-66
2023/08/26 07:48:08;;;;;;;6.80;4.05;;;26.60;99.90;;;;;;5100652;28;20598;-66
2023/08/26 07:50:57;;;;;;;7.25;4.78;;;26.70;99.90;;;;;;5103587;28;20200;-65
2023/08/26 07:53:44;;;;;;;6.78;3.88;;;26.70;99.90;;;;;;5099892;28;20214;-65
2023/08/26 07:56:32;;;;;;;8.30;4.50;;;26.50;99.90;;;;;;5106834;28;20340;-65
2023/08/26 07:59:19;;;;;;;7.65;3.63;;;26.80;99.90;;;;;;5107707;28;20195;-66
2023/08/26 08:02:06;;;;;;;5.13;3.58;;;27.10;99.90;;;;;;5110305;28;20238;-65
2023/08/26 08:04:53;;;;;;;4.80;3.38;;;27.20;99.90;;;;;;5114195;28;20199;-65
2023/08/26 08:07:42;;;;;;;4.97;3.05;;;27.40;99.90;;;;;;5114975;28;20252;-66
2023/08/26 08:10:29;;;;;;;6.35;3.50;;;27.40;99.90;;;;;;5111606;28;20222;-65
2023/08/26 08:13:19;;;;;;;5.13;3.08;;;27.50;99.90;;;;;;5112364;28;20200;-65
2023/08/26 08:16:08;;;;;;;4.78;3.33;;;27.60;99.90;;;;;;5098656;28;20289;-65
2023/08/26 08:18:55;;;;;;;5.13;3.25;;;27.50;99.90;;;;;;5109912;28;20191;-65
2023/08/26 08:21:42;;;;;;;5.53;3.25;;;27.50;99.90;;;;;;5108454;28;20642;-65
2023/08/26 08:24:31;;;;;;;8.40;3.88;;;27.40;99.90;;;;;;5109975;28;20195;-65
2023/08/26 08:27:18;;;;;;;3.70;2.92;;;27.70;99.90;;;;;;5110648;28;20206;-65
2023/08/26 08:30:06;;;;;;;3.75;2.90;;;27.80;99.90;;;;;;5109208;28;20219;-65
2023/08/26 08:32:53;;;;;;;5.70;3.00;;;28.10;99.90;;;;;;5107194;28;20910;-65
2023/08/26 08:35:41;;;;;;;7.30;3.03;;;28.20;99.90;;;;;;5106573;28;20198;-65
2023/08/26 08:38:28;;;;;;;5.55;2.60;;;28.70;99.90;;;;;;5103160;28;20270;-66
2023/08/26 08:41:18;;;;;;;4.38;2.90;;;28.60;90.90;;;;;;5108742;28;20227;-65
2023/08/26 08:44:10;;;;;;;4.97;3.25;;;28.70;91.00;;;;;;5102483;28;20207;-65
2023/08/26 08:46:58;;;;;;;5.05;3.17;;;29.00;93.90;;;;;;5107538;28;20656;-65
2023/08/26 08:49:45;;;;;;;6.82;3.80;;;29.40;99.10;;;;;;5109601;28;20448;-65
2023/08/26 08:52:33;;;;;;;5.15;3.33;;;29.70;96.00;;;;;;5107889;28;20604;-65
2023/08/26 08:55:20;;;;;;;6.00;3.33;;;29.80;92.70;;;;;;5103784;28;20191;-65
2023/08/26 08:58:10;;;;;;;7.65;3.10;;;29.90;97.40;;;;;;5104825;28;21034;-65
2023/08/26 09:00:58;;;;;;;3.97;2.90;;;30.10;78.00;;;;;;5106333;28;20199;-65
2023/08/26 09:03:45;;;;;;;4.00;2.33;;;29.70;71.50;;;;;;5104498;28;20234;-64
2023/08/26 09:06:32;;;;;;;7.20;2.70;;;29.20;71.20;;;;;;5107476;28;20196;-64
2023/08/26 09:09:20;;;;;;;4.97;2.72;;;29.70;79.30;;;;;;5111812;28;20251;-64
2023/08/26 09:12:08;;;;;;;6.10;3.15;;;30.20;78.10;;;;;;5109230;28;20600;-65
2023/08/26 09:14:56;;;;;;;4.53;3.10;;;30.60;80.40;;;;;;5108476;28;20203;-65
2023/08/26 09:17:45;;;;;;;7.80;3.70;;;30.90;74.70;;;;;;5103720;28;20203;-65
2023/08/26 09:20:35;;;;;;;5.55;3.38;;;31.00;71.30;;;;;;5101512;28;20213;-65
2023/08/26 09:23:23;;;;;;;5.63;3.20;;;31.10;69.60;;;;;;5110340;28;20200;-65
2023/08/26 09:26:10;;;;;;;7.32;2.83;;;30.80;70.30;;;;;;5110647;28;20199;-65
2023/08/26 09:28:57;;;;;;;5.70;2.97;;;30.90;69.50;;;;;;5104621;28;20299;-65
2023/08/26 09:31:49;;;;;;;6.05;3.20;;;30.90;67.60;;;;;;5105805;28;20226;-64
2023/08/26 09:34:37;;;;;;;6.55;3.78;;;30.80;71.40;;;;;;5105892;28;20205;-64
2023/08/26 09:37:29;;;;;;;3.58;2.90;;;30.90;69.30;;;;;;5101268;27;20568;-65
2023/08/26 09:40:18;;;;;;;4.97;3.30;;;31.20;80.10;;;;;;5102048;28;20191;-64
2023/08/26 09:43:06;;;;;;;6.43;2.97;;;30.70;73.20;;;;;;5106453;28;20568;-65
2023/08/26 09:45:57;;;;;;;6.90;3.45;;;30.20;72.10;;;;;;5104809;28;20589;-65
2023/08/26 09:48:47;;;;;;;4.18;2.88;;;30.00;71.80;;;;;;5102930;28;20352;-64
2023/08/26 09:51:34;;;;;;;4.20;2.88;;;29.50;76.20;;;;;;5099568;28;20312;-64
2023/08/26 09:54:22;;;;;;;5.88;3.05;;;29.50;79.00;;;;;;5102620;28;20646;-64
2023/08/26 09:57:11;;;;;;;4.22;3.15;;;29.40;81.80;;;;;;5105177;28;20199;-65
2023/08/26 09:59:58;;;;;;;4.93;3.30;;;29.80;79.50;;;;;;5098981;28;20196;-65
2023/08/26 10:02:48;;;;;;;8.98;3.53;;;30.30;89.90;;;;;;5103741;28;20223;-65
2023/08/26 10:05:38;;;;;;;6.13;3.40;;;30.30;76.30;;;;;;5101144;28;20668;-64
2023/08/26 10:08:28;;;;;;;5.00;3.25;;;30.50;72.20;;;;;;5100359;28;20195;-65
2023/08/26 10:11:15;;;;;;;5.32;3.40;;;30.60;73.50;;;;;;5107267;28;20288;-65
2023/08/26 10:14:03;;;;;;;7.63;3.90;;;30.40;77.30;;;;;;5104901;28;20244;-65
2023/08/26 10:16:50;;;;;;;9.13;3.70;;;30.60;72.30;;;;;;5100561;28;20204;-64
2023/08/26 10:19:38;;;;;;;6.82;3.38;;;30.50;72.20;;;;;;5102423;28;20195;-64
2023/08/26 10:22:27;;;;;;;8.85;3.53;;;30.40;71.60;;;;;;5098023;28;20235;-64
2023/08/26 10:25:14;;;;;;;5.82;3.28;;;30.30;78.20;;;;;;5104033;28;20596;-64
2023/08/26 10:28:03;;;;;;;7.90;3.67;;;30.40;76.90;;;;;;5103009;28;20222;-64
2023/08/26 10:30:52;;;;;;;5.85;3.35;;;30.70;78.50;;;;;;5100642;28;20554;-65
2023/08/26 10:34:00;;;;;;;9.98;3.33;;;30.60;75.50;;;;;;5105590;28;20228;-64
2023/08/26 10:36:48;;;;;;;7.65;3.13;;;30.10;72.90;;;;;;5099323;28;20195;-65
2023/08/26 10:39:36;;;;;;;4.20;3.22;;;30.60;76.90;;;;;;5107244;28;20191;-65
2023/08/26 10:42:24;;;;;;;5.43;3.33;;;31.00;75.20;;;;;;5099387;28;20200;-64
2023/08/26 10:45:14;;;;;;;6.93;3.25;;;31.10;72.30;;;;;;5099067;28;20207;-64
2023/08/26 10:48:02;;;;;;;6.32;3.25;;;31.00;73.70;;;;;;5100368;28;20230;-64
2023/08/26 10:50:59;;;;;;;5.85;2.90;;;30.80;74.00;;;;;;5101536;28;20570;-64
2023/08/26 10:53:46;;;;;;;5.10;3.22;;;30.20;87.00;;;;;;5103448;28;20685;-64
2023/08/26 10:56:39;;;;;;;6.82;2.90;;;29.80;83.70;;;;;;5105405;28;20995;-65
2023/08/26 10:59:34;;;;;;;6.60;3.58;;;29.70;84.40;;;;;;5095669;28;20195;-64
2023/08/26 11:02:23;;;;;;;7.35;3.03;;;29.30;79.50;;;;;;5103551;28;20246;-64
2023/08/26 11:05:11;;;;;;;6.43;3.22;;;28.70;83.70;;;;;;5101624;28;20211;-65
2023/08/26 11:07:58;;;;;;;9.13;3.40;;;28.20;89.80;;;;;;5103633;28;20263;-65
2023/08/26 11:10:45;;;;;;;4.35;3.03;;;27.90;94.90;;;;;;5097411;28;20203;-64
2023/08/26 11:13:33;;;;;;;5.97;3.13;;;27.80;99.90;;;;;;5105570;28;20670;-64
2023/08/26 11:16:21;;;;;;;8.00;3.25;;;27.60;99.90;;;;;;5102096;28;20194;-65
2023/08/26 11:19:08;;;;;;;7.30;3.42;;;27.50;99.90;;;;;;5103506;28;20207;-65
2023/08/26 11:21:56;;;;;;;4.43;3.00;;;27.30;99.90;;;;;;5105494;28;20243;-65
2023/08/26 11:24:48;;;;;;;8.32;3.58;;;27.00;99.90;;;;;;5103481;28;20195;-64
2023/08/26 11:27:37;;;;;;;3.92;3.13;;;26.80;99.90;;;;;;5087976;28;20191;-65
2023/08/26 11:30:26;;;;;;;6.22;3.50;;;26.20;99.90;;;;;;5103527;27;20222;-64
2023/08/26 11:33:15;;;;;;;7.15;3.30;;;25.90;99.90;;;;;;5095455;28;20211;-64
2023/08/26 11:36:02;;;;;;;6.10;3.22;;;25.80;99.90;;;;;;5101217;28;20578;-64
2023/08/26 11:38:49;;;;;;;7.05;3.67;;;25.40;99.90;;;;;;5094624;28;20759;-64
2023/08/26 11:41:36;;;;;;;9.05;3.97;;;25.30;99.90;;;;;;5098627;28;20195;-64
2023/08/26 11:44:24;;;;;;;7.47;3.70;;;25.00;99.90;;;;;;5097661;28;20315;-64
2023/08/26 11:47:13;;;;;;;9.40;4.22;;;24.90;99.90;;;;;;5095690;28;20214;-65
2023/08/26 11:50:00;;;;;;;9.35;4.88;;;24.20;99.90;;;;;;5101909;28;20589;-65
2023/08/26 11:52:47;;;;;;;11.05;4.75;;;23.60;99.90;;;;;;5099674;28;20227;-65
2023/08/26 11:55:35;;;;;;;8.63;5.00;;;23.40;99.90;;;;;;5099876;28;20603;-65
2023/08/26 11:58:22;;;;;;;10.15;5.13;;;23.10;99.90;;;;;;5100328;28;20282;-65
2023/08/26 12:01:09;;;;;;;12.52;5.68;;;23.00;99.90;;;;;;5100608;28;20191;-66
2023/08/26 12:03:58;;;;;;;10.57;5.20;;;22.90;99.90;;;;;;5098910;28;20562;-65
2023/08/26 12:06:45;;;;;;;5.45;4.70;;;23.00;99.90;;;;;;5097046;28;20207;-65
2023/08/26 12:09:35;;;;;;;11.85;5.32;;;22.90;99.90;;;;;;5102287;28;20199;-65
2023/08/26 12:12:22;;;;;;;12.10;5.47;;;22.70;99.90;;;;;;5103763;28;20195;-65
2023/08/26 12:15:11;;;;;;;12.82;6.97;;;22.60;99.90;;;;;;5097133;28;20206;-65
2023/08/26 12:18:00;;;;;;;15.67;7.33;;;22.40;99.90;;;;;;5100111;28;20686;-65
2023/08/26 12:20:50;;;;;;;15.33;7.87;;;22.30;99.90;;;;;;5101229;28;20196;-65
2023/08/26 12:23:38;;;;;;;13.63;7.20;;;22.00;99.90;;;;;;5098859;28;20200;-65
2023/08/26 12:26:25;;;;;;;13.07;7.37;;;21.90;99.90;;;;;;5104196;28;20219;-66
2023/08/26 12:29:13;;;;;;;15.53;7.27;;;21.60;99.90;;;;;;5101251;28;20203;-66
2023/08/26 12:32:00;;;;;;;14.70;5.17;;;21.40;99.90;;;;;;5102635;28;20199;-66
2023/08/26 12:34:47;;;;;;;7.10;3.87;;;21.00;99.90;;;;;;5104200;28;20328;-66
2023/08/26 12:37:36;;;;;;;8.97;3.93;;;20.90;99.90;;;;;;5102345;28;20689;-65
2023/08/26 12:40:23;;;;;;;9.93;3.93;;;20.70;99.90;;;;;;5103193;28;20804;-66
2023/08/26 12:43:10;;;;;;;10.43;3.83;;;20.60;99.90;;;;;;5099805;28;20203;-66
2023/08/26 12:45:58;;;;;;;9.93;4.13;;;20.50;99.90;;;;;;5099322;28;20203;-66
2023/08/26 12:48:45;;;;;;;6.10;3.47;;;20.40;99.90;;;;;;5103300;28;20210;-66
2023/08/26 12:51:32;;;;;;;4.60;2.97;;;20.40;99.90;;;;;;5110781;28;20310;-65
2023/08/26 12:54:21;;;;;;;8.30;4.07;;;20.30;99.90;;;;;;5105001;28;20191;-65
2023/08/26 12:57:08;;;;;;;9.30;4.80;;;20.20;99.90;;;;;;5109950;28;20566;-66
2023/08/26 12:59:56;;;;;;;23.93;10.37;;;20.20;99.90;;;;;;5105735;28;20192;-66
2023/08/26 13:02:44;;;;;;;5.80;2.90;;;20.10;99.90;;;;;;5098054;28;20231;-66
2023/08/26 13:05:31;;;;;;;6.93;2.57;;;20.10;99.90;;;;;;5107092;28;20211;-66
2023/08/26 13:08:18;;;;;;;4.23;2.30;;;20.00;99.90;;;;;;5106203;28;20198;-67
2023/08/26 13:11:07;;;;;;;4.90;2.20;;;20.10;99.90;;;;;;5106251;28;20215;-66
2023/08/26 13:13:55;;;;;;;8.27;2.63;;;20.10;99.90;;;;;;5105998;28;20194;-66
2023/08/26 13:16:42;;;;;;;6.10;2.77;;;20.00;99.90;;;;;;5106613;27;20191;-66
2023/08/26 13:19:31;;;;;;;6.13;2.50;;;20.10;99.90;;;;;;5102435;28;20676;-65
2023/08/26 13:22:18;;;;;;;6.30;3.10;;;20.00;99.90;;;;;;5097978;28;20230;-65
2023/08/26 13:25:07;;;;;;;8.53;3.30;;;20.10;99.90;;;;;;5104134;28;20195;-65
2023/08/26 13:27:55;;;;;;;7.93;2.90;;;20.20;99.90;;;;;;5100865;28;20207;-65
2023/08/26 13:30:42;;;;;;;4.87;2.93;;;20.30;99.90;;;;;;5101768;28;20227;-65
2023/08/26 13:33:29;;;;;;;4.53;2.70;;;20.40;99.90;;;;;;5100718;28;20200;-65
2023/08/26 13:36:17;;;;;;;3.83;2.77;;;20.70;99.90;;;;;;5104654;28;20618;-65
2023/08/26 13:39:04;;;;;;;4.70;2.70;;;20.90;99.90;;;;;;5092529;28;20602;-65
2023/08/26 13:41:55;;;;;;;6.87;2.80;;;21.10;99.90;;;;;;5101973;28;20199;-65
2023/08/26 13:44:44;;;;;;;7.57;3.10;;;21.20;99.90;;;;;;5099158;28;20199;-66
2023/08/26 13:47:31;;;;;;;6.13;3.27;;;21.30;99.90;;;;;;5103697;28;20648;-65
2023/08/26 13:50:18;;;;;;;7.50;3.80;;;21.50;99.90;;;;;;5104064;28;20299;-65
2023/08/26 13:53:05;;;;;;;7.77;3.60;;;21.60;99.90;;;;;;5102454;28;20211;-65
2023/08/26 13:55:57;;;;;;;10.90;6.00;;;21.70;99.90;;;;;;5105043;28;20289;-65
2023/08/26 13:58:44;;;;;;;21.33;9.77;;;21.80;99.90;;;;;;5094099;28;20801;-65
2023/08/26 14:01:33;;;;;;;15.57;8.17;;;21.80;99.90;;;;;;5101272;28;20198;-65
2023/08/26 14:04:21;;;;;;;12.27;5.80;;;21.80;99.90;;;;;;5101494;28;20238;-65
2023/08/26 14:07:08;;;;;;;6.67;4.27;;;21.90;99.90;;;;;;5102981;28;20625;-65
2023/08/26 14:09:55;;;;;;;7.53;3.97;;;21.90;99.90;;;;;;5103287;28;20300;-65
2023/08/26 14:12:43;;;;;;;7.70;4.03;;;21.90;99.90;;;;;;5099591;28;20199;-65
2023/08/26 14:15:30;;;;;;;6.13;4.17;;;21.90;99.90;;;;;;5102151;28;20196;-65
2023/08/26 14:18:18;;;;;;;5.90;4.27;;;22.00;99.90;;;;;;5098194;28;20229;-65
2023/08/26 14:21:06;;;;;;;9.63;4.33;;;22.00;99.90;;;;;;4890744;28;534416;-65
2023/08/26 14:23:53;;;;;;;11.70;4.10;;;22.00;99.90;;;;;;4439095;27;658898;-65
2023/08/26 14:26:40;;;;;;;6.83;3.60;;;21.90;99.90;;;;;;4454542;28;660472;-65